Hoegh Berlin — C6XQ4 — position and weather

sailwx.info

Track history (hours):
 
Tides and Currents Weather Stations Pressure Air Temp Water Temp Dewpoint Dewpoint Depression Visibility Wind Speed Wind Dir Waves Ship Positions

Hoegh Berlin

Last reported at 2015-Jan-30 19:33 UTC. Time now 2015-Jan-30 20:09 UTC.
Position N 34°34' E 135°12'.

Length 228 m; draft 8.9 m.

Type: Cargo ship. MMSI: 311019100.

Date/timePositionNaut miles runAvg speedWind from/ knotsBaromVisibWave heightAir tempDewpointWater temp
2015-Jan-30 19:33N 34°34' E 135°12'1 1.0
2015-Jan-30 18:33N 34°34' E 135°13'0 0.0
2015-Jan-30 17:33N 34°34' E 135°13'0 0.0
2015-Jan-30 16:33N 34°34' E 135°13'0 0.1
2015-Jan-30 15:27N 34°34' E 135°13'0 0.0
2015-Jan-30 14:33N 34°34' E 135°13'0 0.0
2015-Jan-30 13:33N 34°34' E 135°13'0 0.1
2015-Jan-30 12:33N 34°34' E 135°13'0 0.0
2015-Jan-30 11:33N 34°34' E 135°13'0 0.0
2015-Jan-30 10:21N 34°34' E 135°13'1 0.7
2015-Jan-30 09:33N 34°34' E 135°13'8 7.1
2015-Jan-30 08:29N 34°41' E 135°17'0 0.0
2015-Jan-30 07:23N 34°41' E 135°17'0 0.0
2015-Jan-30 06:05N 34°41' E 135°17'0 0.0
2015-Jan-30 05:17N 34°41' E 135°17'0 0.0
2015-Jan-30 04:29N 34°41' E 135°17'0 0.0
2015-Jan-30 03:29N 34°41' E 135°17'0 0.0
2015-Jan-30 02:29N 34°41' E 135°17'0 0.0
2015-Jan-30 01:29N 34°41' E 135°17'0 0.0
2015-Jan-30 00:29N 34°41' E 135°17'0 0.1
2015-Jan-29 23:33N 34°41' E 135°17'3 3.3
2015-Jan-29 22:33N 34°38' E 135°18'7 7.1
2015-Jan-29 21:33N 34°32' E 135°13'1717.4
2015-Jan-29 20:34N 34°19' E 135°00'1211.8
2015-Jan-29 19:33N 34°07' E 134°59'1010.1
2015-Jan-29 18:33N 33°57' E 134°56'203 4.6
2015-Jan-27 22:07N 34°01' E 130°52'4 6.7
2015-Jan-27 21:31N 34°03' E 130°48'  
Track history (hours):
 
Tides and Currents Weather Stations Pressure Air Temp Water Temp Dewpoint Dewpoint Depression Visibility Wind Speed Wind Dir Waves Ship Positions

Hoegh Berlin

Last reported at 2015-Jan-30 19:33 UTC. Time now 2015-Jan-30 20:09 UTC.
Position N 34°34' E 135°12'.

Length 228 m; draft 8.9 m.

Type: Cargo ship. MMSI: 311019100.

Date/timePositionNaut miles runAvg speedWind from/ knotsBaromVisibWave heightAir tempDewpointWater temp
2015-Jan-30 19:33N 34°34' E 135°12'1 1.0
2015-Jan-30 18:33N 34°34' E 135°13'0 0.0
2015-Jan-30 17:33N 34°34' E 135°13'0 0.0
2015-Jan-30 16:33N 34°34' E 135°13'0 0.1
2015-Jan-30 15:27N 34°34' E 135°13'0 0.0
2015-Jan-30 14:33N 34°34' E 135°13'0 0.0
2015-Jan-30 13:33N 34°34' E 135°13'0 0.1
2015-Jan-30 12:33N 34°34' E 135°13'0 0.0
2015-Jan-30 11:33N 34°34' E 135°13'0 0.0
2015-Jan-30 10:21N 34°34' E 135°13'1 0.7
2015-Jan-30 09:33N 34°34' E 135°13'8 7.1
2015-Jan-30 08:29N 34°41' E 135°17'0 0.0
2015-Jan-30 07:23N 34°41' E 135°17'0 0.0
2015-Jan-30 06:05N 34°41' E 135°17'0 0.0
2015-Jan-30 05:17N 34°41' E 135°17'0 0.0
2015-Jan-30 04:29N 34°41' E 135°17'0 0.0
2015-Jan-30 03:29N 34°41' E 135°17'0 0.0
2015-Jan-30 02:29N 34°41' E 135°17'0 0.0
2015-Jan-30 01:29N 34°41' E 135°17'0 0.0
2015-Jan-30 00:29N 34°41' E 135°17'0 0.1
2015-Jan-29 23:33N 34°41' E 135°17'3 3.3
2015-Jan-29 22:33N 34°38' E 135°18'7 7.1
2015-Jan-29 21:33N 34°32' E 135°13'1717.4
2015-Jan-29 20:34N 34°19' E 135°00'1211.8
2015-Jan-29 19:33N 34°07' E 134°59'1010.1
2015-Jan-29 18:33N 33°57' E 134°56'203 4.6
2015-Jan-27 22:07N 34°01' E 130°52'4 6.7
2015-Jan-27 21:31N 34°03' E 130°48'  

Dump ship's entire track history